SJV997 WAAA-WIII
Flight info
| Callsign | SJV997 |
|---|---|
| Flight time | 1h 58m |
| Altitude | 34000 |
| Route | NUNLU T6 KURUS |
| Aircraft | A320/M-SDE3FGHIRWY/LB1 |
Departure
| Time | 2026-04-28 08:02 |
|---|---|
| Airport | Sultan Hasanuddin International Airport (WAAA) |
Arrival
| Time | 2026-04-28 10:00 |
|---|---|
| Airport | Soekarno-Hatta International Airport (WIII) |
| Time | Latitude | Longitude | Altitude | Speed | Heading |
|---|---|---|---|---|---|
| 2026-04-28 07:40 | -5.07757 | 119.54736 | 41 ft | 0 kts | 299° |
| 2026-04-28 07:51 | -5.07758 | 119.54738 | 41 ft | 2 kts | 298° |
| 2026-04-28 07:52 | -5.07766 | 119.54753 | 41 ft | 2 kts | 299° |
| 2026-04-28 07:52 | -5.07774 | 119.54767 | 40 ft | 2 kts | 299° |
| 2026-04-28 07:52 | -5.07780 | 119.54782 | 37 ft | 2 kts | 279° |
| 2026-04-28 07:52 | -5.07781 | 119.54799 | 37 ft | 2 kts | 252° |
| 2026-04-28 07:53 | -5.07774 | 119.54811 | 38 ft | 1 kts | 219° |
| 2026-04-28 07:53 | -5.07772 | 119.54813 | 41 ft | 0 kts | 215° |
| 2026-04-28 07:56 | -5.07774 | 119.54812 | 41 ft | 1 kts | 210° |
| 2026-04-28 07:56 | -5.07806 | 119.54793 | 41 ft | 10 kts | 210° |
| 2026-04-28 07:56 | -5.07892 | 119.54743 | 41 ft | 17 kts | 210° |
| 2026-04-28 07:56 | -5.07969 | 119.54705 | 41 ft | 9 kts | 187° |
| 2026-04-28 07:57 | -5.08001 | 119.54732 | 40 ft | 10 kts | 125° |
| 2026-04-28 07:57 | -5.08039 | 119.54798 | 41 ft | 12 kts | 120° |
| 2026-04-28 07:57 | -5.08108 | 119.54842 | 40 ft | 14 kts | 186° |
| 2026-04-28 07:57 | -5.08200 | 119.54794 | 40 ft | 16 kts | 210° |
| 2026-04-28 07:58 | -5.08301 | 119.54736 | 40 ft | 18 kts | 210° |
| 2026-04-28 07:58 | -5.08414 | 119.54671 | 39 ft | 20 kts | 210° |
| 2026-04-28 07:58 | -5.08542 | 119.54597 | 41 ft | 22 kts | 210° |
| 2026-04-28 07:58 | -5.08679 | 119.54518 | 41 ft | 24 kts | 210° |
| 2026-04-28 07:59 | -5.08816 | 119.54439 | 41 ft | 23 kts | 210° |
| 2026-04-28 07:59 | -5.08954 | 119.54359 | 41 ft | 23 kts | 210° |
| 2026-04-28 07:59 | -5.09044 | 119.54307 | 41 ft | 10 kts | 210° |
| 2026-04-28 07:59 | -5.09109 | 119.54275 | 41 ft | 11 kts | 192° |
| 2026-04-28 08:00 | -5.09174 | 119.54312 | 41 ft | 7 kts | 124° |
| 2026-04-28 08:00 | -5.09185 | 119.54329 | 41 ft | 3 kts | 122° |
| 2026-04-28 08:00 | -5.09202 | 119.54356 | 41 ft | 6 kts | 122° |
| 2026-04-28 08:00 | -5.09224 | 119.54400 | 41 ft | 8 kts | 99° |
| 2026-04-28 08:01 | -5.09186 | 119.54430 | 42 ft | 8 kts | 30° |
| 2026-04-28 08:01 | -5.09064 | 119.54501 | 43 ft | 50 kts | 30° |
| 2026-04-28 08:01 | -5.08532 | 119.54806 | 41 ft | 122 kts | 30° |
| 2026-04-28 08:01 | -5.07630 | 119.55328 | 85 ft | 171 kts | 32° |
| 2026-04-28 08:02 | -5.06546 | 119.55855 | 714 ft | 174 kts | 19° |
| 2026-04-28 08:02 | -5.05363 | 119.56052 | 1532 ft | 170 kts | 360° |
| 2026-04-28 08:02 | -5.04175 | 119.56011 | 2237 ft | 177 kts | 355° |
| 2026-04-28 08:02 | -5.02876 | 119.55925 | 2739 ft | 197 kts | 356° |
| 2026-04-28 08:03 | -5.01437 | 119.55863 | 3222 ft | 218 kts | 359° |
| 2026-04-28 08:03 | -4.99859 | 119.55840 | 3871 ft | 229 kts | 0° |
| 2026-04-28 08:03 | -4.98290 | 119.55619 | 4841 ft | 230 kts | 340° |
| 2026-04-28 08:03 | -4.96917 | 119.54792 | 5724 ft | 234 kts | 316° |
| 2026-04-28 08:04 | -4.95989 | 119.53452 | 6566 ft | 237 kts | 291° |
| 2026-04-28 08:04 | -4.95679 | 119.51834 | 7377 ft | 239 kts | 270° |
| 2026-04-28 08:04 | -4.95667 | 119.50158 | 8208 ft | 242 kts | 270° |
| 2026-04-28 08:04 | -4.95644 | 119.48463 | 9043 ft | 244 kts | 271° |
| 2026-04-28 08:05 | -4.95610 | 119.46773 | 9843 ft | 247 kts | 271° |
| 2026-04-28 08:05 | -4.95569 | 119.45038 | 10577 ft | 251 kts | 271° |
| 2026-04-28 08:05 | -4.95525 | 119.43279 | 11304 ft | 254 kts | 271° |
| 2026-04-28 08:05 | -4.95479 | 119.41495 | 12033 ft | 258 kts | 271° |
| 2026-04-28 08:06 | -4.95432 | 119.39687 | 12759 ft | 261 kts | 271° |
| 2026-04-28 08:06 | -4.95385 | 119.37850 | 13480 ft | 265 kts | 271° |
| 2026-04-28 08:06 | -4.95338 | 119.35988 | 14128 ft | 269 kts | 271° |
| 2026-04-28 08:06 | -4.95290 | 119.34094 | 14735 ft | 274 kts | 271° |
| 2026-04-28 08:07 | -4.95241 | 119.32169 | 15356 ft | 278 kts | 271° |
| 2026-04-28 08:07 | -4.95192 | 119.30221 | 15984 ft | 281 kts | 271° |
| 2026-04-28 08:07 | -4.95143 | 119.28247 | 16609 ft | 284 kts | 271° |
| 2026-04-28 08:07 | -4.95092 | 119.26249 | 17207 ft | 289 kts | 271° |
| 2026-04-28 08:08 | -4.95041 | 119.24222 | 17812 ft | 292 kts | 271° |
| 2026-04-28 08:08 | -4.94989 | 119.22170 | 18356 ft | 296 kts | 271° |
| 2026-04-28 08:08 | -4.94937 | 119.20096 | 18873 ft | 299 kts | 271° |
| 2026-04-28 08:08 | -4.94884 | 119.17998 | 19398 ft | 302 kts | 272° |
| 2026-04-28 08:09 | -4.94832 | 119.15905 | 19896 ft | 305 kts | 272° |
| 2026-04-28 08:09 | -4.94778 | 119.13767 | 20398 ft | 308 kts | 272° |
| 2026-04-28 08:09 | -4.94723 | 119.11606 | 20893 ft | 311 kts | 272° |
| 2026-04-28 08:09 | -4.94668 | 119.09424 | 21370 ft | 315 kts | 272° |
| 2026-04-28 08:10 | -4.94612 | 119.07215 | 21849 ft | 319 kts | 272° |
| 2026-04-28 08:10 | -4.94555 | 119.04979 | 22310 ft | 323 kts | 272° |
| 2026-04-28 08:10 | -4.94498 | 119.02714 | 22780 ft | 326 kts | 272° |
| 2026-04-28 08:10 | -4.94440 | 119.00431 | 23249 ft | 330 kts | 272° |
| 2026-04-28 08:11 | -4.94381 | 118.98120 | 23648 ft | 333 kts | 272° |
| 2026-04-28 08:11 | -4.94322 | 118.95795 | 24067 ft | 335 kts | 272° |
| 2026-04-28 08:11 | -4.94262 | 118.93448 | 24441 ft | 338 kts | 272° |
| 2026-04-28 08:11 | -4.94201 | 118.91082 | 24827 ft | 340 kts | 272° |
| 2026-04-28 08:12 | -4.94141 | 118.88705 | 25223 ft | 342 kts | 272° |
| 2026-04-28 08:12 | -4.94079 | 118.86306 | 25579 ft | 346 kts | 272° |
| 2026-04-28 08:12 | -4.94017 | 118.83882 | 25954 ft | 348 kts | 272° |
| 2026-04-28 08:12 | -4.93954 | 118.81448 | 26331 ft | 350 kts | 272° |
| 2026-04-28 08:13 | -4.93891 | 118.78991 | 26685 ft | 353 kts | 272° |
| 2026-04-28 08:13 | -4.93828 | 118.76544 | 27027 ft | 356 kts | 272° |
| 2026-04-28 08:13 | -4.93933 | 118.74057 | 27386 ft | 359 kts | 263° |
| 2026-04-28 08:13 | -4.94381 | 118.71574 | 27694 ft | 362 kts | 256° |
| 2026-04-28 08:14 | -4.94958 | 118.69104 | 28048 ft | 364 kts | 257° |
| 2026-04-28 08:14 | -4.95525 | 118.66622 | 28391 ft | 367 kts | 257° |
| 2026-04-28 08:14 | -4.96093 | 118.64113 | 28695 ft | 370 kts | 257° |
| 2026-04-28 08:14 | -4.96665 | 118.61588 | 29030 ft | 372 kts | 257° |
| 2026-04-28 08:15 | -4.97240 | 118.59045 | 29370 ft | 374 kts | 257° |
| 2026-04-28 08:15 | -4.97819 | 118.56489 | 29675 ft | 377 kts | 257° |
| 2026-04-28 08:15 | -4.98402 | 118.53915 | 29957 ft | 380 kts | 257° |
| 2026-04-28 08:15 | -4.98989 | 118.51326 | 30246 ft | 381 kts | 257° |
| 2026-04-28 08:16 | -4.99570 | 118.48761 | 30539 ft | 383 kts | 257° |
| 2026-04-28 08:16 | -5.00162 | 118.46148 | 30800 ft | 386 kts | 257° |
| 2026-04-28 08:16 | -5.00758 | 118.43519 | 31075 ft | 387 kts | 257° |
| 2026-04-28 08:16 | -5.01355 | 118.40881 | 31362 ft | 389 kts | 257° |
| 2026-04-28 08:17 | -5.01955 | 118.38233 | 31633 ft | 391 kts | 257° |
| 2026-04-28 08:17 | -5.02558 | 118.35569 | 31897 ft | 393 kts | 257° |
| 2026-04-28 08:17 | -5.03164 | 118.32887 | 32137 ft | 395 kts | 257° |
| 2026-04-28 08:17 | -5.03774 | 118.30191 | 32401 ft | 396 kts | 257° |
| 2026-04-28 08:18 | -5.04386 | 118.27487 | 32658 ft | 398 kts | 257° |
| 2026-04-28 08:18 | -5.05001 | 118.24771 | 32882 ft | 401 kts | 257° |
| 2026-04-28 08:18 | -5.05618 | 118.22041 | 33104 ft | 403 kts | 257° |
| 2026-04-28 08:18 | -5.06239 | 118.19295 | 33352 ft | 404 kts | 257° |
| 2026-04-28 08:19 | -5.06861 | 118.16542 | 33589 ft | 406 kts | 256° |
| 2026-04-28 08:19 | -5.07486 | 118.13776 | 33772 ft | 409 kts | 256° |
| 2026-04-28 08:19 | -5.08768 | 118.08108 | 33819 ft | 424 kts | 256° |
| 2026-04-28 08:20 | -5.10096 | 118.02230 | 33816 ft | 440 kts | 256° |
| 2026-04-28 08:20 | -5.11472 | 117.96135 | 33817 ft | 456 kts | 257° |
| 2026-04-28 08:21 | -5.12886 | 117.89867 | 33814 ft | 471 kts | 257° |
| 2026-04-28 08:21 | -5.13917 | 117.83288 | 33822 ft | 484 kts | 266° |
| 2026-04-28 08:22 | -5.14359 | 117.76553 | 33815 ft | 483 kts | 266° |
| 2026-04-28 08:22 | -5.14820 | 117.69833 | 33811 ft | 483 kts | 266° |
| 2026-04-28 08:23 | -5.15279 | 117.63114 | 33825 ft | 483 kts | 266° |
| 2026-04-28 08:23 | -5.15737 | 117.56395 | 33818 ft | 482 kts | 266° |
| 2026-04-28 08:24 | -5.16193 | 117.49680 | 33816 ft | 482 kts | 266° |
| 2026-04-28 08:24 | -5.16645 | 117.43011 | 33820 ft | 482 kts | 266° |
| 2026-04-28 08:25 | -5.17099 | 117.36301 | 33815 ft | 482 kts | 266° |
| 2026-04-28 08:26 | -5.17780 | 117.26225 | 33817 ft | 482 kts | 266° |
| 2026-04-28 08:26 | -5.18233 | 117.19512 | 33811 ft | 482 kts | 266° |
| 2026-04-28 08:27 | -5.18685 | 117.12802 | 33814 ft | 482 kts | 266° |
| 2026-04-28 08:27 | -5.19133 | 117.06135 | 33815 ft | 482 kts | 266° |
| 2026-04-28 08:28 | -5.19645 | 116.99426 | 33814 ft | 482 kts | 263° |
| 2026-04-28 08:28 | -5.20483 | 116.92746 | 33818 ft | 482 kts | 262° |
| 2026-04-28 08:29 | -5.21322 | 116.86075 | 33810 ft | 482 kts | 263° |
| 2026-04-28 08:29 | -5.22124 | 116.79394 | 33814 ft | 482 kts | 263° |
| 2026-04-28 08:30 | -5.22917 | 116.72703 | 33814 ft | 483 kts | 263° |
| 2026-04-28 08:30 | -5.23708 | 116.66010 | 33818 ft | 483 kts | 263° |
| 2026-04-28 08:31 | -5.24494 | 116.59355 | 33825 ft | 483 kts | 263° |
| 2026-04-28 08:31 | -5.25285 | 116.52660 | 33824 ft | 483 kts | 263° |
| 2026-04-28 08:32 | -5.26074 | 116.45972 | 33823 ft | 483 kts | 263° |
| 2026-04-28 08:32 | -5.26863 | 116.39284 | 33824 ft | 482 kts | 263° |
| 2026-04-28 08:33 | -5.27649 | 116.32603 | 33828 ft | 482 kts | 263° |
| 2026-04-28 08:33 | -5.28435 | 116.25923 | 33829 ft | 481 kts | 263° |
| 2026-04-28 08:34 | -5.29215 | 116.19285 | 33829 ft | 481 kts | 263° |
| 2026-04-28 08:34 | -5.29997 | 116.12626 | 33826 ft | 480 kts | 263° |
| 2026-04-28 08:35 | -5.30777 | 116.05979 | 33820 ft | 479 kts | 263° |
| 2026-04-28 08:35 | -5.31555 | 115.99344 | 33816 ft | 479 kts | 263° |
| 2026-04-28 08:36 | -5.32332 | 115.92710 | 33812 ft | 478 kts | 263° |
| 2026-04-28 08:36 | -5.33107 | 115.86089 | 33810 ft | 478 kts | 263° |
| 2026-04-28 08:37 | -5.33881 | 115.79471 | 33815 ft | 477 kts | 263° |
| 2026-04-28 08:37 | -5.34648 | 115.72898 | 33807 ft | 477 kts | 263° |
| 2026-04-28 08:38 | -5.35421 | 115.66275 | 33814 ft | 477 kts | 263° |
| 2026-04-28 08:38 | -5.36191 | 115.59672 | 33810 ft | 477 kts | 263° |
| 2026-04-28 08:39 | -5.36960 | 115.53065 | 33809 ft | 476 kts | 263° |
| 2026-04-28 08:39 | -5.37730 | 115.46452 | 33812 ft | 476 kts | 263° |
| 2026-04-28 08:40 | -5.38498 | 115.39845 | 33813 ft | 476 kts | 263° |
| 2026-04-28 08:40 | -5.39261 | 115.33277 | 33810 ft | 477 kts | 263° |
| 2026-04-28 08:41 | -5.40027 | 115.26674 | 33812 ft | 477 kts | 263° |
| 2026-04-28 08:41 | -5.40794 | 115.20056 | 33816 ft | 477 kts | 263° |
| 2026-04-28 08:42 | -5.41560 | 115.13447 | 33817 ft | 477 kts | 263° |
| 2026-04-28 08:42 | -5.42325 | 115.06834 | 33818 ft | 477 kts | 263° |
| 2026-04-28 08:43 | -5.43089 | 115.00218 | 33819 ft | 477 kts | 263° |
| 2026-04-28 08:43 | -5.43854 | 114.93598 | 33820 ft | 477 kts | 263° |
| 2026-04-28 08:44 | -5.44616 | 114.86985 | 33821 ft | 477 kts | 263° |
| 2026-04-28 08:44 | -5.45374 | 114.80409 | 33822 ft | 477 kts | 263° |
| 2026-04-28 08:45 | -5.46136 | 114.73794 | 33823 ft | 477 kts | 263° |
| 2026-04-28 08:45 | -5.46897 | 114.67177 | 33820 ft | 477 kts | 263° |
| 2026-04-28 08:46 | -5.47657 | 114.60563 | 33821 ft | 477 kts | 263° |
| 2026-04-28 08:46 | -5.48287 | 114.55078 | 33823 ft | 476 kts | 263° |
| 2026-04-28 08:47 | -5.49046 | 114.48461 | 33818 ft | 476 kts | 263° |
| 2026-04-28 08:47 | -5.49803 | 114.41859 | 33817 ft | 476 kts | 263° |
| 2026-04-28 08:48 | -5.50559 | 114.35252 | 33820 ft | 476 kts | 263° |
| 2026-04-28 08:48 | -5.51314 | 114.28652 | 33818 ft | 476 kts | 263° |
| 2026-04-28 08:49 | -5.52063 | 114.22097 | 33815 ft | 475 kts | 263° |
| 2026-04-28 08:49 | -5.52816 | 114.15502 | 33819 ft | 475 kts | 263° |
| 2026-04-28 08:50 | -5.53568 | 114.08907 | 33812 ft | 475 kts | 263° |
| 2026-04-28 08:50 | -5.54319 | 114.02320 | 33812 ft | 475 kts | 263° |
| 2026-04-28 08:51 | -5.55081 | 113.95730 | 33813 ft | 475 kts | 263° |
| 2026-04-28 08:51 | -5.55875 | 113.89144 | 33815 ft | 475 kts | 263° |
| 2026-04-28 08:52 | -5.56669 | 113.82549 | 33819 ft | 476 kts | 263° |
| 2026-04-28 08:52 | -5.57459 | 113.75949 | 33820 ft | 476 kts | 263° |
| 2026-04-28 08:53 | -5.58242 | 113.69387 | 33821 ft | 476 kts | 263° |
| 2026-04-28 08:53 | -5.59029 | 113.62789 | 33819 ft | 476 kts | 264° |
| 2026-04-28 08:54 | -5.59817 | 113.56180 | 33821 ft | 476 kts | 264° |
| 2026-04-28 08:54 | -5.60603 | 113.49576 | 33823 ft | 477 kts | 264° |
| 2026-04-28 08:55 | -5.61389 | 113.42968 | 33821 ft | 477 kts | 264° |
| 2026-04-28 08:55 | -5.62174 | 113.36356 | 33821 ft | 477 kts | 264° |
| 2026-04-28 08:56 | -5.62955 | 113.29776 | 33823 ft | 477 kts | 264° |
| 2026-04-28 08:56 | -5.63740 | 113.23154 | 33820 ft | 478 kts | 264° |
| 2026-04-28 08:57 | -5.64524 | 113.16532 | 33824 ft | 478 kts | 264° |
| 2026-04-28 08:57 | -5.65309 | 113.09903 | 33824 ft | 478 kts | 263° |
| 2026-04-28 08:58 | -5.66092 | 113.03277 | 33822 ft | 478 kts | 263° |
| 2026-04-28 08:58 | -5.66875 | 112.96645 | 33826 ft | 478 kts | 263° |
| 2026-04-28 08:59 | -5.67658 | 112.90014 | 33822 ft | 478 kts | 263° |
| 2026-04-28 08:59 | -5.68439 | 112.83383 | 33823 ft | 478 kts | 263° |
| 2026-04-28 09:00 | -5.69220 | 112.76756 | 33827 ft | 478 kts | 263° |
| 2026-04-28 09:00 | -5.69998 | 112.70135 | 33827 ft | 478 kts | 263° |
| 2026-04-28 09:01 | -5.70776 | 112.63515 | 33826 ft | 477 kts | 263° |
| 2026-04-28 09:01 | -5.71553 | 112.56898 | 33826 ft | 477 kts | 263° |
| 2026-04-28 09:02 | -5.72324 | 112.50316 | 33822 ft | 476 kts | 263° |
| 2026-04-28 09:02 | -5.73098 | 112.43707 | 33820 ft | 476 kts | 263° |
| 2026-04-28 09:03 | -5.73871 | 112.37104 | 33818 ft | 476 kts | 263° |
| 2026-04-28 09:03 | -5.74642 | 112.30511 | 33820 ft | 475 kts | 263° |
| 2026-04-28 09:04 | -5.75412 | 112.23915 | 33820 ft | 475 kts | 263° |
| 2026-04-28 09:04 | -5.76182 | 112.17320 | 33817 ft | 475 kts | 263° |
| 2026-04-28 09:05 | -5.76950 | 112.10729 | 33819 ft | 475 kts | 263° |
| 2026-04-28 09:05 | -5.77712 | 112.04188 | 33821 ft | 475 kts | 263° |
| 2026-04-28 09:06 | -5.78488 | 111.97521 | 33822 ft | 487 kts | 263° |
| 2026-04-28 09:06 | -5.79281 | 111.90698 | 33817 ft | 493 kts | 263° |
| 2026-04-28 09:07 | -5.80074 | 111.83871 | 33821 ft | 492 kts | 263° |
| 2026-04-28 09:07 | -5.80865 | 111.77050 | 33822 ft | 492 kts | 263° |
| 2026-04-28 09:08 | -5.81655 | 111.70228 | 33820 ft | 491 kts | 263° |
| 2026-04-28 09:08 | -5.82439 | 111.63449 | 33824 ft | 491 kts | 263° |
| 2026-04-28 09:09 | -5.83227 | 111.56635 | 33823 ft | 491 kts | 263° |
| 2026-04-28 09:09 | -5.84014 | 111.49822 | 33825 ft | 491 kts | 264° |
| 2026-04-28 09:10 | -5.84800 | 111.43011 | 33823 ft | 491 kts | 264° |
| 2026-04-28 09:10 | -5.85585 | 111.36190 | 33822 ft | 491 kts | 264° |
| 2026-04-28 09:11 | -5.86371 | 111.29367 | 33820 ft | 491 kts | 264° |
| 2026-04-28 09:11 | -5.87150 | 111.22599 | 33821 ft | 491 kts | 264° |
| 2026-04-28 09:12 | -5.87918 | 111.15788 | 33820 ft | 491 kts | 264° |
| 2026-04-28 09:12 | -5.88674 | 111.08969 | 33817 ft | 491 kts | 264° |
| 2026-04-28 09:13 | -5.89432 | 111.02151 | 33819 ft | 491 kts | 264° |
| 2026-04-28 09:13 | -5.90190 | 110.95338 | 33819 ft | 491 kts | 264° |
| 2026-04-28 09:14 | -5.90943 | 110.88564 | 33821 ft | 491 kts | 264° |
| 2026-04-28 09:14 | -5.91700 | 110.81750 | 33817 ft | 491 kts | 264° |
| 2026-04-28 09:15 | -5.92456 | 110.74935 | 33818 ft | 491 kts | 264° |
| 2026-04-28 09:15 | -5.93211 | 110.68117 | 33820 ft | 491 kts | 264° |
| 2026-04-28 09:16 | -5.93967 | 110.61286 | 33820 ft | 491 kts | 264° |
| 2026-04-28 09:16 | -5.94722 | 110.54462 | 33817 ft | 491 kts | 264° |
| 2026-04-28 09:17 | -5.95475 | 110.47635 | 33823 ft | 491 kts | 264° |
| 2026-04-28 09:17 | -5.96228 | 110.40808 | 33821 ft | 492 kts | 264° |
| 2026-04-28 09:18 | -5.96503 | 110.33954 | 33820 ft | 491 kts | 271° |
| 2026-04-28 09:18 | -5.96498 | 110.27125 | 33819 ft | 492 kts | 270° |
| 2026-04-28 09:19 | -5.96502 | 110.20252 | 33817 ft | 492 kts | 270° |
| 2026-04-28 09:19 | -5.96503 | 110.13381 | 33816 ft | 492 kts | 270° |
| 2026-04-28 09:20 | -5.96502 | 110.06504 | 33817 ft | 492 kts | 270° |
| 2026-04-28 09:20 | -5.96500 | 109.99633 | 33821 ft | 492 kts | 270° |
| 2026-04-28 09:21 | -5.96497 | 109.92756 | 33824 ft | 492 kts | 270° |
| 2026-04-28 09:21 | -5.96493 | 109.85869 | 33823 ft | 492 kts | 270° |
| 2026-04-28 09:22 | -5.96488 | 109.78985 | 33825 ft | 492 kts | 270° |
| 2026-04-28 09:22 | -5.96482 | 109.72143 | 33821 ft | 492 kts | 270° |
| 2026-04-28 09:23 | -5.96476 | 109.65265 | 33822 ft | 492 kts | 270° |
| 2026-04-28 09:23 | -5.96469 | 109.58387 | 33819 ft | 492 kts | 270° |
| 2026-04-28 09:24 | -5.96460 | 109.51507 | 33822 ft | 492 kts | 270° |
| 2026-04-28 09:24 | -5.96451 | 109.44632 | 33817 ft | 492 kts | 270° |
| 2026-04-28 09:25 | -5.96441 | 109.37748 | 33825 ft | 492 kts | 270° |
| 2026-04-28 09:25 | -5.96431 | 109.30863 | 33826 ft | 493 kts | 270° |
| 2026-04-28 09:26 | -5.96419 | 109.23977 | 33822 ft | 493 kts | 270° |
| 2026-04-28 09:26 | -5.96407 | 109.17090 | 33824 ft | 493 kts | 270° |
| 2026-04-28 09:27 | -5.96387 | 109.06796 | 33823 ft | 493 kts | 270° |
| 2026-04-28 09:27 | -5.96372 | 108.99899 | 33823 ft | 493 kts | 270° |
| 2026-04-28 09:28 | -5.96357 | 108.93009 | 33823 ft | 494 kts | 270° |
| 2026-04-28 09:28 | -5.96341 | 108.86113 | 33822 ft | 494 kts | 270° |
| 2026-04-28 09:29 | -5.96324 | 108.79210 | 33823 ft | 494 kts | 270° |
| 2026-04-28 09:29 | -5.96305 | 108.72316 | 33823 ft | 492 kts | 270° |
| 2026-04-28 09:30 | -5.96287 | 108.65439 | 33822 ft | 492 kts | 270° |
| 2026-04-28 09:30 | -5.96267 | 108.58578 | 33821 ft | 490 kts | 270° |
| 2026-04-28 09:31 | -5.96247 | 108.51775 | 33823 ft | 490 kts | 270° |
| 2026-04-28 09:31 | -5.96228 | 108.44936 | 33819 ft | 489 kts | 270° |
| 2026-04-28 09:32 | -5.96222 | 108.38098 | 33819 ft | 489 kts | 270° |
| 2026-04-28 09:32 | -5.96216 | 108.31276 | 33825 ft | 488 kts | 270° |
| 2026-04-28 09:33 | -5.96209 | 108.25599 | 33821 ft | 489 kts | 270° |
| 2026-04-28 09:33 | -5.96197 | 108.17623 | 33821 ft | 488 kts | 270° |
| 2026-04-28 09:34 | -5.96186 | 108.10849 | 33770 ft | 486 kts | 269° |
| 2026-04-28 09:34 | -5.96182 | 108.08556 | 33544 ft | 484 kts | 269° |
| 2026-04-28 09:34 | -5.96177 | 108.05221 | 32902 ft | 483 kts | 270° |
| 2026-04-28 09:35 | -5.96170 | 108.00686 | 31706 ft | 487 kts | 270° |
| 2026-04-28 09:35 | -5.96166 | 107.98434 | 31078 ft | 489 kts | 270° |
| 2026-04-28 09:35 | -5.96164 | 107.95009 | 30256 ft | 489 kts | 270° |
| 2026-04-28 09:35 | -5.96165 | 107.91633 | 29979 ft | 473 kts | 270° |
| 2026-04-28 09:36 | -5.96166 | 107.88399 | 29546 ft | 456 kts | 270° |
| 2026-04-28 09:36 | -5.96166 | 107.85240 | 28691 ft | 449 kts | 270° |
| 2026-04-28 09:36 | -5.96166 | 107.82123 | 27812 ft | 443 kts | 269° |
| 2026-04-28 09:36 | -5.96165 | 107.79045 | 26981 ft | 438 kts | 269° |
| 2026-04-28 09:37 | -5.96165 | 107.76041 | 26186 ft | 432 kts | 269° |
| 2026-04-28 09:37 | -5.96164 | 107.73037 | 25424 ft | 429 kts | 269° |
| 2026-04-28 09:37 | -5.96163 | 107.70045 | 24894 ft | 426 kts | 269° |
| 2026-04-28 09:37 | -5.96162 | 107.67082 | 24379 ft | 422 kts | 269° |
| 2026-04-28 09:38 | -5.96160 | 107.64152 | 24015 ft | 416 kts | 268° |
| 2026-04-28 09:38 | -5.96160 | 107.61249 | 23876 ft | 417 kts | 268° |
| 2026-04-28 09:38 | -5.96162 | 107.58313 | 23827 ft | 420 kts | 268° |
| 2026-04-28 09:38 | -5.96164 | 107.55384 | 23806 ft | 418 kts | 268° |
| 2026-04-28 09:39 | -5.96163 | 107.52505 | 23678 ft | 406 kts | 268° |
| 2026-04-28 09:39 | -5.96162 | 107.49692 | 23131 ft | 400 kts | 268° |
| 2026-04-28 09:39 | -5.96163 | 107.46912 | 22359 ft | 395 kts | 269° |
| 2026-04-28 09:39 | -5.96164 | 107.44165 | 21605 ft | 391 kts | 269° |
| 2026-04-28 09:40 | -5.96164 | 107.41450 | 20883 ft | 386 kts | 269° |
| 2026-04-28 09:40 | -5.96164 | 107.38796 | 20188 ft | 382 kts | 269° |
| 2026-04-28 09:40 | -5.96164 | 107.36138 | 19495 ft | 378 kts | 269° |
| 2026-04-28 09:40 | -5.96164 | 107.33511 | 18822 ft | 374 kts | 269° |
| 2026-04-28 09:41 | -5.96164 | 107.30914 | 18160 ft | 370 kts | 269° |
| 2026-04-28 09:41 | -5.96161 | 107.28338 | 17419 ft | 367 kts | 269° |
| 2026-04-28 09:41 | -5.96158 | 107.25863 | 16724 ft | 363 kts | 269° |
| 2026-04-28 09:41 | -5.96154 | 107.23267 | 16009 ft | 359 kts | 269° |
| 2026-04-28 09:42 | -5.96150 | 107.20776 | 15338 ft | 355 kts | 270° |
| 2026-04-28 09:42 | -5.96147 | 107.18306 | 14669 ft | 352 kts | 270° |
| 2026-04-28 09:42 | -5.96143 | 107.15889 | 14036 ft | 348 kts | 270° |
| 2026-04-28 09:42 | -5.96139 | 107.13471 | 13375 ft | 345 kts | 270° |
| 2026-04-28 09:43 | -5.96135 | 107.11093 | 12982 ft | 335 kts | 270° |
| 2026-04-28 09:43 | -5.96131 | 107.08717 | 12853 ft | 344 kts | 270° |
| 2026-04-28 09:43 | -5.96126 | 107.06315 | 12823 ft | 343 kts | 270° |
| 2026-04-28 09:43 | -5.96122 | 107.03918 | 12825 ft | 345 kts | 270° |
| 2026-04-28 09:44 | -5.96122 | 107.01505 | 12788 ft | 345 kts | 268° |
| 2026-04-28 09:44 | -5.96449 | 106.99143 | 12611 ft | 340 kts | 259° |
| 2026-04-28 09:44 | -5.96901 | 106.96814 | 12193 ft | 339 kts | 258° |
| 2026-04-28 09:44 | -5.97362 | 106.94501 | 11754 ft | 337 kts | 258° |
| 2026-04-28 09:45 | -5.97818 | 106.92207 | 11170 ft | 333 kts | 258° |
| 2026-04-28 09:45 | -5.98265 | 106.89928 | 10509 ft | 331 kts | 258° |
| 2026-04-28 09:45 | -5.98698 | 106.87700 | 9870 ft | 328 kts | 258° |
| 2026-04-28 09:45 | -5.99131 | 106.85457 | 9206 ft | 325 kts | 259° |
| 2026-04-28 09:46 | -5.99557 | 106.83247 | 8573 ft | 321 kts | 259° |
| 2026-04-28 09:46 | -5.99979 | 106.81056 | 7942 ft | 317 kts | 259° |
| 2026-04-28 09:46 | -6.00385 | 106.78942 | 7727 ft | 299 kts | 258° |
| 2026-04-28 09:46 | -6.00768 | 106.76952 | 7494 ft | 284 kts | 259° |
| 2026-04-28 09:47 | -6.01132 | 106.75060 | 7291 ft | 269 kts | 258° |
| 2026-04-28 09:47 | -6.01483 | 106.73233 | 6884 ft | 264 kts | 258° |
| 2026-04-28 09:47 | -6.01830 | 106.71430 | 6424 ft | 262 kts | 259° |
| 2026-04-28 09:47 | -6.02176 | 106.69635 | 5863 ft | 261 kts | 259° |
| 2026-04-28 09:48 | -6.02518 | 106.67855 | 5332 ft | 259 kts | 258° |
| 2026-04-28 09:48 | -6.02855 | 106.66104 | 5010 ft | 248 kts | 258° |
| 2026-04-28 09:48 | -6.03169 | 106.64463 | 4871 ft | 231 kts | 258° |
| 2026-04-28 09:48 | -6.03466 | 106.62915 | 4663 ft | 221 kts | 258° |
| 2026-04-28 09:49 | -6.03757 | 106.61403 | 4277 ft | 220 kts | 258° |
| 2026-04-28 09:49 | -6.04043 | 106.59914 | 3901 ft | 219 kts | 258° |
| 2026-04-28 09:49 | -6.04348 | 106.58419 | 3503 ft | 218 kts | 253° |
| 2026-04-28 09:49 | -6.04887 | 106.57004 | 3135 ft | 216 kts | 246° |
| 2026-04-28 09:50 | -6.05461 | 106.55616 | 2778 ft | 214 kts | 247° |
| 2026-04-28 09:50 | -6.06023 | 106.54231 | 2424 ft | 213 kts | 247° |
| 2026-04-28 09:50 | -6.06579 | 106.52855 | 2139 ft | 208 kts | 248° |
| 2026-04-28 09:50 | -6.07107 | 106.51550 | 2026 ft | 203 kts | 247° |
| 2026-04-28 09:51 | -6.07652 | 106.50200 | 2002 ft | 215 kts | 247° |
| 2026-04-28 09:51 | -6.08211 | 106.48815 | 1996 ft | 212 kts | 248° |
| 2026-04-28 09:51 | -6.08772 | 106.47430 | 2006 ft | 212 kts | 248° |
| 2026-04-28 09:51 | -6.09327 | 106.46055 | 1995 ft | 211 kts | 248° |
| 2026-04-28 09:52 | -6.09875 | 106.44697 | 1999 ft | 212 kts | 248° |
| 2026-04-28 09:52 | -6.10447 | 106.43341 | 1997 ft | 208 kts | 240° |
| 2026-04-28 09:52 | -6.11484 | 106.42349 | 2004 ft | 210 kts | 204° |
| 2026-04-28 09:52 | -6.12892 | 106.42112 | 2005 ft | 207 kts | 175° |
| 2026-04-28 09:53 | -6.14318 | 106.42324 | 1999 ft | 208 kts | 166° |
| 2026-04-28 09:53 | -6.15715 | 106.42650 | 2002 ft | 204 kts | 163° |
| 2026-04-28 09:53 | -6.16914 | 106.43322 | 1996 ft | 188 kts | 133° |
| 2026-04-28 09:53 | -6.17456 | 106.44372 | 1987 ft | 153 kts | 98° |
| 2026-04-28 09:54 | -6.17463 | 106.45337 | 1950 ft | 127 kts | 88° |
| 2026-04-28 09:54 | -6.17458 | 106.46249 | 1927 ft | 132 kts | 89° |
| 2026-04-28 09:54 | -6.17455 | 106.47173 | 1920 ft | 129 kts | 89° |
| 2026-04-28 09:54 | -6.17446 | 106.48084 | 1919 ft | 131 kts | 89° |
| 2026-04-28 09:55 | -6.17423 | 106.48996 | 1912 ft | 131 kts | 85° |
| 2026-04-28 09:55 | -6.17221 | 106.49877 | 1914 ft | 132 kts | 69° |
| 2026-04-28 09:55 | -6.16865 | 106.50721 | 1906 ft | 131 kts | 67° |
| 2026-04-28 09:55 | -6.16522 | 106.51563 | 1895 ft | 131 kts | 68° |
| 2026-04-28 09:56 | -6.16186 | 106.52406 | 1874 ft | 130 kts | 68° |
| 2026-04-28 09:56 | -6.15851 | 106.53255 | 1837 ft | 132 kts | 68° |
| 2026-04-28 09:56 | -6.15513 | 106.54109 | 1787 ft | 131 kts | 68° |
| 2026-04-28 09:56 | -6.15177 | 106.54953 | 1745 ft | 130 kts | 67° |
| 2026-04-28 09:57 | -6.14841 | 106.55795 | 1702 ft | 129 kts | 67° |
| 2026-04-28 09:57 | -6.14504 | 106.56638 | 1628 ft | 130 kts | 68° |
| 2026-04-28 09:57 | -6.14166 | 106.57483 | 1466 ft | 131 kts | 68° |
| 2026-04-28 09:57 | -6.13831 | 106.58325 | 1288 ft | 128 kts | 68° |
| 2026-04-28 09:58 | -6.13500 | 106.59156 | 1117 ft | 127 kts | 68° |
| 2026-04-28 09:58 | -6.13173 | 106.59975 | 963 ft | 129 kts | 67° |
| 2026-04-28 09:58 | -6.12841 | 106.60814 | 796 ft | 128 kts | 66° |
| 2026-04-28 09:58 | -6.12513 | 106.61647 | 622 ft | 126 kts | 68° |
| 2026-04-28 09:59 | -6.12195 | 106.62471 | 487 ft | 130 kts | 66° |
| 2026-04-28 09:59 | -6.11865 | 106.63287 | 307 ft | 125 kts | 66° |
| 2026-04-28 09:59 | -6.11530 | 106.64114 | 179 ft | 128 kts | 65° |
| 2026-04-28 09:59 | -6.11203 | 106.64931 | 41 ft | 121 kts | 66° |
| 2026-04-28 10:00 | -6.10947 | 106.65562 | 41 ft | 70 kts | 69° |
| 2026-04-28 10:00 | -6.10802 | 106.65928 | 41 ft | 33 kts | 68° |
| 2026-04-28 10:00 | -6.10728 | 106.66113 | 40 ft | 29 kts | 68° |
| 2026-04-28 10:00 | -6.10655 | 106.66299 | 39 ft | 28 kts | 70° |
| 2026-04-28 10:01 | -6.10632 | 106.66484 | 38 ft | 24 kts | 94° |
| 2026-04-28 10:01 | -6.10645 | 106.66561 | 38 ft | 9 kts | 100° |
| 2026-04-28 10:01 | -6.10660 | 106.66638 | 37 ft | 12 kts | 109° |
| 2026-04-28 10:01 | -6.10733 | 106.66680 | 37 ft | 14 kts | 162° |
| 2026-04-28 10:02 | -6.10794 | 106.66668 | 37 ft | 10 kts | 229° |
| 2026-04-28 10:02 | -6.10830 | 106.66590 | 38 ft | 14 kts | 247° |
| 2026-04-28 10:02 | -6.10873 | 106.66487 | 38 ft | 18 kts | 247° |
| 2026-04-28 10:02 | -6.10916 | 106.66369 | 38 ft | 17 kts | 251° |
| 2026-04-28 10:03 | -6.10959 | 106.66249 | 38 ft | 20 kts | 245° |
| 2026-04-28 10:03 | -6.11015 | 106.66123 | 37 ft | 8 kts | 249° |
| 2026-04-28 10:03 | -6.11022 | 106.66105 | 37 ft | 4 kts | 248° |
| 2026-04-28 10:03 | -6.11043 | 106.66053 | 38 ft | 12 kts | 248° |
| 2026-04-28 10:04 | -6.11081 | 106.65957 | 37 ft | 17 kts | 248° |
| 2026-04-28 10:04 | -6.11129 | 106.65836 | 38 ft | 21 kts | 248° |
| 2026-04-28 10:04 | -6.11186 | 106.65693 | 37 ft | 24 kts | 248° |
| 2026-04-28 10:04 | -6.11251 | 106.65529 | 38 ft | 27 kts | 248° |
| 2026-04-28 10:05 | -6.11323 | 106.65349 | 38 ft | 29 kts | 248° |
| 2026-04-28 10:05 | -6.11382 | 106.65201 | 36 ft | 18 kts | 248° |
| 2026-04-28 10:05 | -6.11427 | 106.65131 | 39 ft | 10 kts | 190° |
| 2026-04-28 10:05 | -6.11468 | 106.65133 | 40 ft | 0 kts | 162° |
| 2026-04-28 10:07 | -6.11469 | 106.65133 | 40 ft | 0 kts | 162° |
| 2026-04-28 10:07 | -6.11488 | 106.65140 | 38 ft | 7 kts | 161° |
| 2026-04-28 10:07 | -6.11570 | 106.65149 | 39 ft | 17 kts | 204° |
| 2026-04-28 10:07 | -6.11671 | 106.65058 | 41 ft | 8 kts | 223° |
| 2026-04-28 10:08 | -6.11685 | 106.65045 | 41 ft | 5 kts | 223° |
| 2026-04-28 10:08 | -6.11727 | 106.65010 | 41 ft | 10 kts | 219° |
| 2026-04-28 10:08 | -6.11803 | 106.64971 | 40 ft | 15 kts | 177° |
| 2026-04-28 10:08 | -6.11906 | 106.65010 | 38 ft | 14 kts | 158° |
| 2026-04-28 10:09 | -6.11989 | 106.65031 | 38 ft | 11 kts | 157° |
| 2026-04-28 10:09 | -6.12037 | 106.65081 | 38 ft | 0 kts | 131° |